Погода Бэлла-Виста-до-Параисона неделю

Парана, Бразилия

19 - 25 июля
  • 19июля
    Сегодня
    +14°
    +27°
    Ясно и безоблачно
    ВремяПогодаТемператураВлажностьДавлениеВетер, м/сВероятность осадков
    00:00Ясно и безоблачно+20°C74 %717 мм2.4 м/с5 %
    03:00Ясно и безоблачно+17°C80 %717 мм2.0 м/с5 %
    06:00Ясно и безоблачно+17°C81 %718 мм2.5 м/с5 %
    09:00Ясно и безоблачно+19°C77 %720 мм3.5 м/с5 %
    12:00Ясно и безоблачно+24°C58 %721 мм3.0 м/с5 %
    15:00Ясно и безоблачно+27°C43 %719 мм2.4 м/с5 %
    18:00Ясно и безоблачно+23°C63 %718 мм2.2 м/с5 %
    21:00Ясно и безоблачно+20°C79 %718 мм2.0 м/с5 %
  • 20июля
    Суббота
    +13°
    +27°
    Ясно и безоблачно
    ВремяПогодаТемператураВлажностьДавлениеВетер, м/сВероятность осадков
    00:00Ясно и безоблачно+18°C86 %719 мм2.0 м/с5 %
    03:00Ясно и безоблачно+16°C89 %717 мм2.1 м/с5 %
    06:00Ясно и безоблачно+15°C91 %717 мм2.1 м/с5 %
    09:00Ясно и безоблачно+19°C74 %719 мм2.7 м/с5 %
    12:00Ясно и безоблачно+24°C49 %719 мм3.1 м/с5 %
    15:00Ясно и безоблачно+27°C36 %718 мм2.4 м/с5 %
    18:00Ясно и безоблачно+23°C55 %716 мм2.2 м/с5 %
    21:00Ясно и безоблачно+19°C67 %717 мм2.2 м/с5 %
  • 21июля
    Воскресенье
    +16°
    +27°
    Ясно и безоблачно
    ВремяПогодаТемператураВлажностьДавлениеВетер, м/сВероятность осадков
    00:00Ясно и безоблачно+17°C72 %717 мм2.3 м/с5 %
    03:00Ясно и безоблачно+15°C77 %716 мм2.6 м/с5 %
    06:00Ясно и безоблачно+15°C78 %716 мм3.1 м/с5 %
    09:00Ясно и безоблачно+16°C68 %718 мм3.4 м/с5 %
    12:00Ясно и безоблачно+22°C53 %718 мм3.0 м/с5 %
    15:00Ясно и безоблачно+26°C46 %716 мм2.2 м/с5 %
    18:00Ясно и безоблачно+22°C71 %716 мм2.7 м/с5 %
    21:00Ясно и безоблачно+21°C79 %716 мм2.2 м/с5 %
  • 22июля
    Понедельник
    +16°
    +29°
    Ясно и безоблачно
    ВремяПогодаТемператураВлажностьДавлениеВетер, м/сВероятность осадков
    00:00Ясно и безоблачно+18°C85 %717 мм2.1 м/с5 %
    03:00Ясно и безоблачно+18°C85 %716 мм2.6 м/с5 %
    06:00Ясно и безоблачно+16°C90 %716 мм2.0 м/с5 %
    09:00Ясно и безоблачно+20°C73 %719 мм1.9 м/с5 %
    12:00Ясно и безоблачно+25°C49 %719 мм2.4 м/с5 %
    15:00Ясно и безоблачно+28°C38 %718 мм1.1 м/с5 %
    18:00Ясно и безоблачно+24°C57 %717 мм2.2 м/с5 %
    21:00Ясно и безоблачно+21°C64 %717 мм2.2 м/с5 %
  • 23июля
    Вторник
    +16°
    +28°
    Ясно и безоблачно
    ВремяПогодаТемператураВлажностьДавлениеВетер, м/сВероятность осадков
    00:00Ясно и безоблачно+20°C73 %718 мм2.4 м/с5 %
    03:00Ясно и безоблачно+17°C74 %717 мм2.8 м/с5 %
    06:00Ясно и безоблачно+17°C86 %718 мм2.9 м/с5 %
    09:00Ясно и безоблачно+19°C69 %719 мм3.4 м/с5 %
    12:00Ясно и безоблачно+25°C45 %720 мм3.4 м/с5 %
    15:00Ясно и безоблачно+28°C38 %718 мм2.9 м/с5 %
    18:00Ясно и безоблачно+24°C55 %717 мм2.1 м/с5 %
    21:00Практически безоблачно+22°C62 %717 мм3.0 м/с5 %
Мы используем cookies
Соглашаюсь